Aérodrome :
LOGIN :

S'inscrire | Disclaimer

   EN    FR    IT 

 










Légende :    VFR   VFR Marginal   IFR   IFR Intensif   IFR Très Intensif
Visi : 
Plafond : 
>= 8 km
>= 3000ft
5 à 8 km
1000 à 3000 ft
1500m à 5 km
500 à 1000 ft
800 à 1500m
200 à 500 ft
< 800m
< 200 ft
Symboles :   Orages  Brouillard  Fortes neiges  Fortes précipitations  Vent > 20 kt
SIGMETs :   Divers  Orages  Givrage  Turbulence  Onde Orograph.  Cendres Volcan.






- Altitude de l'aérodrome : 726 ft
- Code IATA : DIJ


LFSD - Dijon

DERNIER METAR :
  • 220000Z AUTO 35007KT 330V040 CAVOK 02/00 Q1021

METARs EXPIRÉS :
  • 212330Z AUTO 35005KT 320V020 CAVOK 02/00 Q1021
  • 212300Z AUTO 35007KT CAVOK 02/00 Q1021
  • 212230Z AUTO 36006KT 330V050 CAVOK 03/01 Q1021
  • 212200Z AUTO 36007KT 330V030 CAVOK 03/01 Q1022
  • 212130Z AUTO 35007KT CAVOK 03/01 Q1022
  • 212100Z AUTO 35008KT CAVOK 03/01 Q1022
  • 212030Z AUTO 35008KT 9999 FEW034 BKN130 04/01 Q1022
  • 212000Z AUTO 35007KT CAVOK 04/01 Q1021
  • 211930Z AUTO 35007KT 330V040 CAVOK 04/01 Q1021

Prévision TAF périmée.



MET'MAP, la Météo Aéronautique d'un coup d'oeil ! - Copyright ORBIFLY Décembre 2007 - Disclaimer

ORBIFLY MET'MAP TEAM :

Programmation & Développement : Alexandra Zaïnal
Sur une idée originale de : Baudouin d'Aumeries
Soutien technique & logistique : Manuel Goepfert
Assistance : Marc-Olivier Méhu




SOURCES & CREDITS :

   NOAA